Latest Coastal Weather Observations for Lihou Reef Lighthouse

IDQ60701

Issued at 2:12 am EST Friday 30 January 2015 (issued every 10 minutes, with the page automatically refreshed every 10 minutes)

About coastal observations | Map of coastal stations | Coastal observations for QLD | Marine services | Other Formats
Station Details ID: 200880 Name: LIHOU REEF LIGHTHOUSE Lat: -17.13 Lon: 152.15 Height: 0.0 m
Data from the previous 72 hours. | See also: Recent months for locations in Queensland
Date/Time
EST
Temp

°C
Wind Pressure Rain
since 9am
mm
Weather Cloud Vis
km
Sea
Height
m
Swell
Dir
 
Speed
knots
Gust
knots
hPa Trend Height
m
Period
s
Dir
30/02:00am 28.3 SSW 8 10 1003.0 - - - - - - - - -
30/01:30am 28.4 SSW 9 12 1003.5 - - - - - - - - -
30/01:00am 28.5 SSW 7 10 1004.0 - - - - - - - - -
30/12:30am 28.8 SSW 7 9 1004.3 - - - - - - - - -
30/12:00am 28.5 SSW 7 10 1004.6 - - - - - - - - -
 
Date/Time
EST
Temp

°C
Wind Pressure Rain
since 9am
mm
Weather Cloud Vis
km
Sea
Height
m
Swell
Dir
 
Speed
knots
Gust
knots
hPa Trend Height
m
Period
s
Dir
29/11:30pm 28.8 S 7 10 1004.8 - - - - - - - - -
29/11:00pm 29.1 SSW 8 10 1004.9 - - - - - - - - -
29/10:30pm 29.0 SSW 9 11 1005.1 - - - - - - - - -
29/10:00pm 29.0 SSW 8 10 1005.2 - - - - - - - - -
29/09:30pm 29.1 SSW 7 10 1005.2 - - - - - - - - -
29/09:00pm 29.1 SW 9 11 1004.9 - - - - - - - - -
29/08:30pm 29.2 SW 9 11 1004.8 - - - - - - - - -
29/08:00pm 29.0 SW 9 12 1004.5 - - - - - - - - -
29/07:30pm 29.1 SW 8 10 1004.3 - - - - - - - - -
29/07:00pm 29.1 SW 8 11 1003.9 - - - - - - - - -
29/06:30pm 29.2 SW 10 13 1003.5 - - - - - - - - -
29/06:00pm 29.3 SW 9 11 1003.3 - - - - - - - - -
29/05:30pm 29.8 WSW 11 14 1003.1 - - - - - - - - -
29/05:00pm 28.7 WSW 10 14 1002.7 - - - - - - - - -
29/04:30pm 29.7 W 9 12 1002.5 - - - - - - - - -
29/04:00pm 28.7 WNW 9 11 1002.3 - - - - - - - - -
29/03:30pm 28.8 WNW 9 11 1002.3 - - - - - - - - -
29/03:00pm 27.9 WNW 9 11 1002.2 - - - - - - - - -
29/02:30pm 28.3 WNW 11 12 1002.3 - - - - - - - - -
29/02:00pm 29.0 W 10 13 1002.5 - - - - - - - - -
29/01:30pm 29.9 W 9 10 1002.5 - - - - - - - - -
29/01:00pm 29.6 WSW 8 10 1002.7 - - - - - - - - -
29/12:30pm 29.5 WSW 10 11 1003.1 - - - - - - - - -
29/12:00pm 29.7 WSW 8 9 1003.5 - - - - - - - - -
29/11:30am 29.5 WSW 4 7 1003.7 - - - - - - - - -
29/11:00am 29.4 WSW 6 8 1003.7 - - - - - - - - -
29/10:30am 29.6 WSW 4 6 1004.0 - - - - - - - - -
29/10:00am 29.5 WSW 6 7 1004.2 - - - - - - - - -
29/09:30am 29.4 WSW 5 7 1004.2 - - - - - - - - -
29/09:00am 30.2 W 6 8 1004.4 - - - - - - - - -
29/08:30am 29.2 W 7 8 1004.1 - - - - - - - - -
29/08:00am 28.7 WSW 9 11 1003.9 - - - - - - - - -
29/07:30am 27.5 WSW 14 19 1003.6 - - - - - - - - -
29/07:23am 27.9 WSW 14 19 1003.6 - - - - - - - - -
29/07:00am 29.0 WSW 5 8 1003.3 - - - - - - - - -
29/06:30am 28.6 WSW 6 9 1003.3 - - - - - - - - -
29/06:00am 28.3 WSW 6 10 1003.1 - - - - - - - - -
29/05:30am 28.4 SW 5 7 1002.5 - - - - - - - - -
29/05:00am 28.4 SW 5 7 1002.1 - - - - - - - - -
29/04:30am 28.4 SW 4 6 1001.9 - - - - - - - - -
29/04:00am 28.4 SW 5 7 1001.7 - - - - - - - - -
29/03:30am 28.4 SW 3 5 1001.6 - - - - - - - - -
29/03:00am 28.5 SW 4 6 1001.7 - - - - - - - - -
29/02:30am 28.4 SW 5 7 1001.6 - - - - - - - - -
29/02:00am 28.5 SW 7 9 1001.5 - - - - - - - - -
29/01:30am 28.5 SW 5 6 1001.7 - - - - - - - - -
29/01:00am 28.4 SW 5 6 1001.7 - - - - - - - - -
29/12:30am 28.7 SW 3 4 1002.1 - - - - - - - - -
29/12:00am 28.7 SW 3 4 1002.6 - - - - - - - - -
 
Date/Time
EST
Temp

°C
Wind Pressure Rain
since 9am
mm
Weather Cloud Vis
km
Sea
Height
m
Swell
Dir
 
Speed
knots
Gust
knots
hPa Trend Height
m
Period
s
Dir
28/11:30pm 28.8 SW 3 3 1003.0 - - - - - - - - -
28/11:00pm 28.8 SSW 3 4 1003.3 - - - - - - - - -
28/10:30pm 28.8 SW 2 3 1003.4 - - - - - - - - -
28/10:00pm 29.0 SSW 2 3 1003.3 - - - - - - - - -
28/09:30pm 28.9 SSW 4 5 1003.0 - - - - - - - - -
28/09:00pm 28.9 SSW 4 6 1002.8 - - - - - - - - -
28/08:30pm 29.0 SW 3 5 1002.8 - - - - - - - - -
28/08:00pm 28.9 SW 3 4 1002.8 - - - - - - - - -
28/07:30pm 29.0 SW 4 6 1002.4 - - - - - - - - -
28/07:00pm 29.1 SW 5 6 1002.1 - - - - - - - - -
28/06:30pm 29.0 SW 4 5 1001.6 - - - - - - - - -
28/06:00pm 29.0 SW 5 7 1001.2 - - - - - - - - -
28/05:30pm 29.1 SW 5 7 1000.5 - - - - - - - - -
28/05:00pm 29.1 SW 5 7 1000.2 - - - - - - - - -
28/04:30pm 28.9 SW 5 7 1000.0 - - - - - - - - -
28/04:00pm 29.0 SW 5 7 999.6 - - - - - - - - -
28/03:30pm 29.5 SW 3 5 999.5 - - - - - - - - -
28/03:00pm 29.4 SW 2 3 999.5 - - - - - - - - -
28/02:30pm 29.7 WSW 3 5 1000.0 - - - - - - - - -
28/02:00pm 29.3 WSW 4 7 1000.3 - - - - - - - - -
28/01:30pm 29.2 SW 4 5 1000.7 - - - - - - - - -
28/01:00pm 29.1 WSW 4 6 1000.7 - - - - - - - - -
28/12:30pm 29.3 WSW 4 7 1001.0 - - - - - - - - -
28/12:00pm 29.2 W 6 7 1001.5 - - - - - - - - -
28/11:30am 29.4 W 6 7 1001.8 - - - - - - - - -
28/11:00am 29.4 W 5 6 1002.2 - - - - - - - - -
28/10:30am 29.7 W 4 6 1002.2 - - - - - - - - -
28/10:00am 29.9 W 2 3 1002.2 - - - - - - - - -
28/09:30am 29.1 W 3 4 1002.2 - - - - - - - - -
28/09:00am 29.2 WSW 5 7 1002.2 - - - - - - - - -
28/08:30am 29.1 WSW 4 5 1002.1 - - - - - - - - -
28/08:00am 28.9 W 5 6 1002.4 - - - - - - - - -
28/07:30am 28.5 W 5 6 1002.1 - - - - - - - - -
28/07:00am 28.0 WNW 5 6 1002.1 - - - - - - - - -
28/06:30am 28.0 W 5 7 1001.8 - - - - - - - - -
28/06:00am 27.8 WNW 3 5 1001.5 - - - - - - - - -
28/05:30am 27.8 W 4 5 1001.4 - - - - - - - - -
28/05:00am 27.8 WNW 4 5 1000.9 - - - - - - - - -
28/04:30am 27.8 WNW 5 6 1000.4 - - - - - - - - -
28/04:00am 27.8 W 5 6 1000.2 - - - - - - - - -
28/03:30am 27.9 WNW 3 4 1000.4 - - - - - - - - -
28/03:00am 27.9 WNW 4 5 1000.5 - - - - - - - - -
28/02:30am 28.1 W 4 5 1000.7 - - - - - - - - -
28/02:00am 28.0 WSW 4 5 1000.9 - - - - - - - - -
28/01:30am 28.1 W 5 5 1001.3 - - - - - - - - -
28/01:00am 28.1 W 5 5 1001.6 - - - - - - - - -
28/12:30am 28.1 WSW 3 5 1002.2 - - - - - - - - -
28/12:00am 28.2 WSW 2 3 1002.6 - - - - - - - - -
 
Date/Time
EST
Temp

°C
Wind Pressure Rain
since 9am
mm
Weather Cloud Vis
km
Sea
Height
m
Swell
Dir
 
Speed
knots
Gust
knots
hPa Trend Height
m
Period
s
Dir
27/11:30pm 28.3 SW 2 3 1003.0 - - - - - - - - -
27/11:00pm 28.3 SW 2 2 1003.4 - - - - - - - - -
27/10:30pm 28.4 SW 2 3 1003.7 - - - - - - - - -
27/10:00pm 28.6 WSW 2 3 1003.4 - - - - - - - - -
27/09:30pm 28.6 SSW 3 4 1003.1 - - - - - - - - -
27/09:00pm 28.6 SSW 3 5 1003.0 - - - - - - - - -
27/08:30pm 28.6 SW 2 3 1003.0 - - - - - - - - -
27/08:00pm 28.6 WSW 4 5 1002.7 - - - - - - - - -
27/07:30pm 28.7 WSW 2 3 1002.4 - - - - - - - - -
27/07:00pm 28.7 SW 3 5 1002.4 - - - - - - - - -
27/06:30pm 28.7 SSW 3 7 1001.8 - - - - - - - - -
27/06:00pm 28.9 SSW 3 4 1001.4 - - - - - - - - -
27/05:30pm 28.8 SSW 4 6 1001.0 - - - - - - - - -
27/05:00pm 28.9 S 6 9 1000.9 - - - - - - - - -
27/04:30pm 28.9 SSW 6 8 1000.7 - - - - - - - - -
27/04:00pm 28.9 SSW 6 9 1000.7 - - - - - - - - -
27/03:30pm 28.8 SSW 5 7 1000.6 - - - - - - - - -
27/03:00pm 28.7 SSW 5 8 1000.8 - - - - - - - - -
27/02:30pm 28.7 SSW 5 7 1001.2 - - - - - - - - -
27/02:00pm 28.8 SSW 4 7 1001.5 - - - - - - - - -
27/01:30pm 28.7 SSW 4 7 1001.9 - - - - - - - - -
27/01:00pm 28.6 SSW 4 6 1002.4 - - - - - - - - -
27/12:30pm 28.6 SW 5 7 1002.7 - - - - - - - - -
27/12:00pm 28.6 SW 5 7 1002.9 - - - - - - - - -
27/11:30am 28.6 SW 5 6 1002.8 - - - - - - - - -
27/11:00am 28.8 SW 5 7 1003.2 - - - - - - - - -
27/10:30am 28.5 SW 7 9 1003.6 - - - - - - - - -
27/10:00am 28.5 SW 7 8 1003.7 - - - - - - - - -
27/09:30am 28.7 SW 5 7 1003.7 - - - - - - - - -
27/09:00am 28.7 SW 5 6 1003.9 - - - - - - - - -
27/08:30am 28.5 SW 6 7 1003.9 - - - - - - - - -
27/08:00am 28.4 WSW 7 9 1004.0 - - - - - - - - -
27/07:30am 28.1 WSW 7 11 1003.6 - - - - - - - - -
27/07:00am 28.3 WSW 9 10 1003.9 - - - - - - - - -
27/06:30am 28.1 WSW 10 13 1003.6 - - - - - - - - -
27/06:00am 27.9 WSW 9 11 1003.4 - - - - - - - - -
27/05:30am 27.9 WSW 6 9 1003.1 - - - - - - - - -
27/05:00am 27.7 SW 5 6 1002.8 - - - - - - - - -
27/04:30am 27.7 SW 5 6 1002.8 - - - - - - - - -
27/04:00am 27.7 WSW 5 7 1002.6 - - - - - - - - -
27/03:30am 27.7 WSW 5 7 1002.4 - - - - - - - - -
27/03:00am 27.8 WSW 6 8 1002.3 - - - - - - - - -
27/02:30am 27.6 WSW 6 8 1002.9 - - - - - - - - -

Other Formats:

Comma delimited format used in spreadsheet applications
http://www.bom.gov.au/fwo/IDQ60701/IDQ60701.94293.axf

JavaScript Object Notation format (JSON) in row-major order
http://www.bom.gov.au/fwo/IDQ60701/IDQ60701.94293.json